Andover, NJ

9:36 AM EST on January 30, 2015 (GMT -0500)
Lake Mohawk, Hillside/Springbrook | Change Station
CLOSE
Current Station
Personal Weather Station
Location: Sparta Township, NJ
Elevation: 869 ft
Nearby Weather Stations

Elev 869 ft 41.01 °N, 74.66 °W | Updated 3 seconds ago

Snow
Snow
28.6 °F
Feels Like 29 °F
N
0.0
Wind Variable Wind from NW
Gusts 0.0 mph

Today
High -- | Low -- °F
--% Chance of Precip.
Yesterday
High -- | Low -- °F
Precip. -- in
7:11 AM 5:13 PM
Waxing Gibbous, 83% visible
Pressure 29.86 in
Visibility 4.0 miles
Clouds Overcast 7000 ft
Windchill 29 °F
Dew Point 23 °F
Humidity 79%
Rainfall 0.00 in
Snow Depth Not available.
UV 0.0 out of 12
Pollen .10 out of 12
Air Quality Not available.
Flu Activity Not available.
SPECI KFWN 301425Z AUTO 00000KT 4SM -SN BR OVC070 M02/M04 A2986 RMK AO2 P0000 T10221039

More Conditions Fewer Conditions

Pressure 29.86 in
Visibility 4.0 miles
Clouds Overcast 7000 ft
Windchill 29 °F
Dew Point 23 °F
Humidity 79%
Rainfall 0.00 in
Snow Depth Not available.
UV 0.0 out of 12
Pollen .10 out of 12
Air Quality Not available.
Flu Activity Not available.
SPECI KFWN 301425Z AUTO 00000KT 4SM -SN BR OVC070 M02/M04 A2986 RMK AO2 P0000 T10221039

More Conditions Fewer Conditions

Nowcast | as of 9:31 am EST on January 30, 2015

A burst of snow will continue to shift quickly eastward this morning out of northeastern Pennsylvania and across northwestern New Jersey. The visibilities will be reduced to near one half of a mile for a time, and a quick coating will result. While driving, use caution as untreated surfaces will be slippery especially the bridges and overpasses.

×

10-Day Weather Forecast

Almanac

Astronomy

Jan. 30, 2015 Rise Set
Actual Time
Civil Twilight
Nautical Twilight
Astronomical Twilight
Moon
Length of Visible Light
Length of Day
Tomorrow will be .
, % of the Moon is Illuminated

Today's Extremes

State Highs State Lows

Community

WunderPhotos

Upload Photos

1,791,765 photos uploaded!

WunderBlogs® & News

Nearby

Air Quality

  Air Quality AQ Index Pollutant
Not available.

Snow Depth

Station Depth Elevation

Earthquake Activity

City Distance Mag. Time & Date
Minimum magnitude displayed is 2.5.

Coastal Water Temperatures

Place Temperature

Nearby Weather Stations